Terminal Aerodrome Forecast
Issued by NWS

Home | Current Version | Previous Version | Text Only | Print | Product List | Glossary On
Versions: 1 2 3 4 5 6 7 8 9 10 11 12 13 14 15 16 17 18 19 20 21 22
000
FTUS46 KEKA 260525
TAFCEC
TAF
KCEC 260525Z 2606/2706 20007KT P6SM OVC045
      TEMPO 2606/2609 5SM -SHRA BR BKN030 OVC040
     FM261000 18006KT 4SM -SHRA MIFG SCT007 OVC030
     FM261600 17004KT 5SM BR VCSH SCT025 OVC050=

USA.gov is the U.S. government's official web portal to all federal, state and local government web resources and services.